createdAt,value
2018-10-18T00:00:07.048Z,23.07
2018-10-18T00:02:43.685Z,23.93
2018-10-18T00:05:18.757Z,28.63
2018-10-18T00:07:54.338Z,26.70
2018-10-18T00:10:31.256Z,25.33
2018-10-18T00:13:06.974Z,26.87
2018-10-18T00:15:43.197Z,25.53
2018-10-18T00:18:19.940Z,23.90
2018-10-18T00:20:56.115Z,23.07
2018-10-18T00:23:32.322Z,23.80
2018-10-18T00:26:08.280Z,22.23
2018-10-18T00:28:45.657Z,22.90
2018-10-18T00:31:20.983Z,23.10
2018-10-18T00:33:56.343Z,26.37
2018-10-18T00:36:32.189Z,26.87
2018-10-18T00:39:11.157Z,24.10
2018-10-18T00:41:47.103Z,21.00
2018-10-18T00:44:22.722Z,26.83
2018-10-18T00:46:59.606Z,24.97
2018-10-18T01:04:03.104Z,24.17
2018-10-18T01:14:08.668Z,21.97
2018-10-18T01:16:45.524Z,25.67
2018-10-18T01:54:42.045Z,25.53
2018-10-18T01:57:45.362Z,23.07
2018-10-18T02:12:16.198Z,26.43
2018-10-18T02:14:51.794Z,27.10
2018-10-18T02:17:29.050Z,24.00
2018-10-18T02:20:10.900Z,24.00
2018-10-18T02:22:46.036Z,23.80
2018-10-18T02:25:21.696Z,27.13
2018-10-18T02:27:58.163Z,24.70
2018-10-18T02:30:35.550Z,27.03
2018-10-18T02:33:11.600Z,26.23
2018-10-18T02:35:47.571Z,21.47
2018-10-18T02:38:23.406Z,23.93
2018-10-18T02:41:00.882Z,27.23
2018-10-18T02:43:36.832Z,26.13
2018-10-18T02:46:12.475Z,27.57
2018-10-18T02:48:51.592Z,26.13
2018-10-18T02:51:28.833Z,25.37
2018-10-18T02:54:04.946Z,24.37
2018-10-18T02:56:41.775Z,28.83
2018-10-18T02:59:17.686Z,24.13
2018-10-18T03:01:53.734Z,24.83
2018-10-18T03:04:30.563Z,23.57
2018-10-18T03:07:07.274Z,26.23
2018-10-18T03:09:44.283Z,26.70
2018-10-18T03:12:21.214Z,26.43
2018-10-18T03:14:58.151Z,25.30
2018-10-18T03:17:34.468Z,24.73
2018-10-18T03:20:08.995Z,26.27
2018-10-18T03:22:44.628Z,29.03
2018-10-18T03:25:20.706Z,29.60
2018-10-18T03:27:57.330Z,23.43
2018-10-18T03:30:33.919Z,23.17
2018-10-18T03:33:09.038Z,27.27
2018-10-18T03:35:44.224Z,27.40
2018-10-18T03:38:20.041Z,27.27
2018-10-18T03:40:55.450Z,26.90
2018-10-18T03:43:32.602Z,25.97
2018-10-18T03:46:08.338Z,25.93
2018-10-18T03:48:44.254Z,24.37
2018-10-18T03:51:19.841Z,25.70
2018-10-18T03:53:55.017Z,27.10
2018-10-18T03:56:30.748Z,29.83
2018-10-18T03:59:07.085Z,29.50
2018-10-18T04:01:42.776Z,29.37
2018-10-18T04:04:18.380Z,25.50
2018-10-18T04:06:55.028Z,28.87
2018-10-18T04:09:30.516Z,28.20
2018-10-18T04:12:07.167Z,29.53
2018-10-18T04:14:41.973Z,27.83
2018-10-18T04:17:17.405Z,27.93
2018-10-18T04:19:52.997Z,29.77
2018-10-18T04:22:31.322Z,28.87
2018-10-18T04:25:08.040Z,28.13
2018-10-18T04:27:43.736Z,28.53
2018-10-18T04:30:18.982Z,25.40
2018-10-18T04:32:54.286Z,27.63
2018-10-18T04:35:29.883Z,27.67
2018-10-18T04:38:07.772Z,25.53
2018-10-18T04:40:42.338Z,28.23
2018-10-18T04:43:17.299Z,29.43
2018-10-18T04:45:53.289Z,24.97
2018-10-18T04:48:29.009Z,28.13
2018-10-18T04:51:04.770Z,25.83
2018-10-18T04:53:43.736Z,25.83
2018-10-18T04:56:19.589Z,28.97
2018-10-18T04:58:54.374Z,26.00
2018-10-18T05:01:29.891Z,28.97
2018-10-18T05:04:05.012Z,25.17
2018-10-18T05:06:39.881Z,26.40
2018-10-18T05:09:14.830Z,29.23
2018-10-18T05:11:49.767Z,27.70
2018-10-18T05:14:24.984Z,27.53
2018-10-18T05:17:06.358Z,29.07
2018-10-18T05:19:41.210Z,26.33
2018-10-18T05:22:16.270Z,30.27
2018-10-18T05:24:51.185Z,29.57
2018-10-18T05:27:25.799Z,26.00
2018-10-18T05:30:01.081Z,26.37
2018-10-18T05:32:36.707Z,28.43
2018-10-18T05:35:13.501Z,28.27
2018-10-18T05:37:48.289Z,29.07
2018-10-18T05:40:23.763Z,26.60
2018-10-18T05:42:59.503Z,30.27
2018-10-18T05:45:34.368Z,28.03
2018-10-18T05:48:09.447Z,27.97
2018-10-18T05:50:46.180Z,27.93
2018-10-18T05:53:21.244Z,31.03
2018-10-18T05:55:56.026Z,27.00
2018-10-18T05:58:31.475Z,27.23
2018-10-18T06:01:07.162Z,28.77
2018-10-18T06:03:42.182Z,27.57
2018-10-18T06:06:17.896Z,26.37
2018-10-18T06:08:52.869Z,26.33
2018-10-18T06:11:31.157Z,27.47
2018-10-18T06:14:06.439Z,27.27
2018-10-18T06:16:41.291Z,29.80
2018-10-18T06:19:16.441Z,30.30
2018-10-18T06:21:51.380Z,29.20
2018-10-18T06:24:26.482Z,32.90
2018-10-18T06:27:01.970Z,27.73
2018-10-18T06:29:37.131Z,31.50
2018-10-18T06:32:12.693Z,27.63
2018-10-18T06:34:48.822Z,30.23
2018-10-18T06:37:23.925Z,30.27
2018-10-18T06:39:58.825Z,30.33
2018-10-18T06:42:34.173Z,31.20
2018-10-18T06:45:11.469Z,31.13
2018-10-18T06:47:48.357Z,33.90
2018-10-18T06:50:23.518Z,33.73
2018-10-18T06:52:59.353Z,33.83
2018-10-18T06:55:34.410Z,30.27
2018-10-18T06:58:09.289Z,29.20
2018-10-18T07:00:44.315Z,30.10
2018-10-18T07:03:19.131Z,32.20
2018-10-18T07:05:54.328Z,27.83
2018-10-18T07:08:30.046Z,26.83
2018-10-18T07:11:05.244Z,28.03
2018-10-18T07:13:40.094Z,30.83
2018-10-18T07:16:14.742Z,29.40
2018-10-18T07:18:49.280Z,24.27
2018-10-18T07:21:23.653Z,29.37
2018-10-18T07:23:59.024Z,28.57
2018-10-18T07:26:33.592Z,27.53
2018-10-18T07:29:08.312Z,28.10
2018-10-18T07:31:42.911Z,25.33
2018-10-18T07:34:17.413Z,29.90
2018-10-18T07:36:52.083Z,23.37
2018-10-18T07:39:26.596Z,25.53
2018-10-18T07:42:02.001Z,27.27
2018-10-18T07:44:37.045Z,25.47
2018-10-18T07:47:11.741Z,25.50
2018-10-18T07:49:46.365Z,23.30
2018-10-18T07:52:20.704Z,30.40
2018-10-18T07:54:55.295Z,23.83
2018-10-18T07:57:29.964Z,25.23
2018-10-18T08:00:05.744Z,24.43
2018-10-18T08:02:40.544Z,27.70
2018-10-18T08:05:15.403Z,27.30
2018-10-18T08:07:50.390Z,27.83
2018-10-18T08:10:25.122Z,26.40
2018-10-18T08:12:59.913Z,26.13
2018-10-18T08:15:34.488Z,28.77
2018-10-18T08:18:09.065Z,26.17
2018-10-18T08:20:43.619Z,25.23
2018-10-18T08:23:18.372Z,26.40
2018-10-18T08:25:52.970Z,26.93
2018-10-18T08:28:27.477Z,28.37
2018-10-18T08:31:02.274Z,28.20
2018-10-18T08:33:37.181Z,29.00
2018-10-18T08:36:11.649Z,29.50
2018-10-18T08:38:46.401Z,27.57
2018-10-18T08:41:21.341Z,29.60
2018-10-18T08:43:58.969Z,27.90
2018-10-18T08:46:35.180Z,29.07
2018-10-18T08:49:10.097Z,25.60
2018-10-18T08:51:45.612Z,24.60
2018-10-18T08:54:20.906Z,28.73
2018-10-18T08:56:55.966Z,29.63
2018-10-18T08:59:31.691Z,25.87
2018-10-18T09:02:08.772Z,27.07
2018-10-18T09:04:45.282Z,27.40
2018-10-18T09:07:20.148Z,27.90
2018-10-18T09:09:55.981Z,28.00
2018-10-18T09:12:31.570Z,28.40
2018-10-18T09:15:09.359Z,30.07
2018-10-18T09:17:44.528Z,29.40
2018-10-18T09:20:19.728Z,34.63
2018-10-18T09:22:55.432Z,30.43
2018-10-18T09:25:30.890Z,32.47
2018-10-18T09:28:06.537Z,34.87
2018-10-18T09:30:41.556Z,32.00
2018-10-18T09:33:16.177Z,35.13
2018-10-18T09:35:57.434Z,28.07
2018-10-18T09:38:32.819Z,30.50
2018-10-18T09:41:12.628Z,27.50
2018-10-18T09:43:47.543Z,30.27
2018-10-18T09:46:28.960Z,32.83
2018-10-18T09:49:04.984Z,30.67
2018-10-18T09:51:39.968Z,32.73
2018-10-18T09:54:14.761Z,31.57
2018-10-18T09:56:50.061Z,27.83
2018-10-18T09:59:25.261Z,27.33
2018-10-18T10:02:06.219Z,33.37
2018-10-18T10:04:41.570Z,31.93
2018-10-18T10:07:18.888Z,30.63
2018-10-18T10:09:54.008Z,26.43
2018-10-18T10:12:31.671Z,29.60
2018-10-18T10:15:07.386Z,26.87
2018-10-18T10:17:58.197Z,30.27
2018-10-18T10:20:33.417Z,28.90
2018-10-18T10:23:09.408Z,32.63
2018-10-18T10:25:44.326Z,29.10
2018-10-18T10:28:19.360Z,33.47
2018-10-18T10:30:54.173Z,28.67
2018-10-18T10:33:29.365Z,32.27
2018-10-18T10:36:04.611Z,31.03
2018-10-18T10:38:39.568Z,32.20
2018-10-18T10:41:15.725Z,33.10
2018-10-18T10:43:50.692Z,31.10
2018-10-18T10:46:25.673Z,31.57
2018-10-18T10:49:00.767Z,30.77
2018-10-18T10:51:35.921Z,35.47
2018-10-18T10:54:10.845Z,30.67
2018-10-18T10:56:45.730Z,32.10
2018-10-18T10:59:21.090Z,36.60
2018-10-18T11:01:56.698Z,32.27
2018-10-18T11:04:31.715Z,36.10
2018-10-18T11:07:06.532Z,29.03
2018-10-18T11:09:55.117Z,30.67
2018-10-18T11:12:30.684Z,33.97
2018-10-18T11:15:06.097Z,30.13
2018-10-18T11:17:40.849Z,39.17
2018-10-18T11:20:15.746Z,34.20
2018-10-18T11:22:50.875Z,30.43
2018-10-18T11:25:25.745Z,31.43
2018-10-18T11:28:00.900Z,31.47
2018-10-18T11:30:37.553Z,29.70
2018-10-18T11:33:12.946Z,29.77
2018-10-18T11:35:47.545Z,29.03
2018-10-18T11:38:28.067Z,28.50
2018-10-18T11:41:02.886Z,29.37
2018-10-18T11:43:37.728Z,31.40
2018-10-18T11:46:12.477Z,28.23
2018-10-18T11:48:47.123Z,24.97
2018-10-18T11:51:22.665Z,28.77
2018-10-18T11:53:57.574Z,24.47
2018-10-18T11:56:36.552Z,25.60
2018-10-18T11:59:11.576Z,25.97
2018-10-18T12:01:46.443Z,24.47
2018-10-18T12:04:21.124Z,24.07
2018-10-18T12:06:57.197Z,21.73
2018-10-18T12:09:32.525Z,23.03
2018-10-18T12:12:07.424Z,23.87
2018-10-18T12:14:42.227Z,23.57
2018-10-18T12:17:18.881Z,23.83
2018-10-18T12:19:53.512Z,22.67
2018-10-18T12:22:28.566Z,21.53
2018-10-18T12:25:03.191Z,22.17
2018-10-18T12:27:37.919Z,21.93
2018-10-18T12:30:13.173Z,22.17
2018-10-18T12:32:47.691Z,20.03
2018-10-18T12:35:22.401Z,21.07
2018-10-18T12:37:56.809Z,22.90
2018-10-18T12:40:31.831Z,20.77
2018-10-18T12:43:06.193Z,22.30
2018-10-18T12:45:40.858Z,21.13
2018-10-18T12:48:15.616Z,22.47
2018-10-18T12:50:50.372Z,21.33
2018-10-18T12:53:25.037Z,22.07
2018-10-18T12:55:59.577Z,19.63
2018-10-18T12:58:34.413Z,18.43
2018-10-18T13:01:08.983Z,19.80
2018-10-18T13:03:43.711Z,18.53
2018-10-18T13:06:18.219Z,17.13
2018-10-18T13:08:53.204Z,16.27
2018-10-18T13:11:28.010Z,17.77
2018-10-18T13:14:03.433Z,19.03
2018-10-18T13:16:37.841Z,18.33
2018-10-18T13:19:12.508Z,17.47
2018-10-18T13:21:46.962Z,17.80
2018-10-18T13:24:21.946Z,17.33
2018-10-18T13:26:56.246Z,16.77
2018-10-18T13:29:30.939Z,17.70
2018-10-18T13:32:05.789Z,16.90
2018-10-18T13:34:40.241Z,16.90
2018-10-18T13:37:14.736Z,15.20
2018-10-18T13:39:49.168Z,14.60
2018-10-18T13:42:26.096Z,17.60
2018-10-18T13:45:01.927Z,17.37
2018-10-18T13:47:38.576Z,15.90
2018-10-18T13:50:13.765Z,18.00
2018-10-18T13:55:26.495Z,17.73
2018-10-18T13:58:02.041Z,13.40
2018-10-18T14:00:37.122Z,13.30
2018-10-18T14:03:11.990Z,15.37
2018-10-18T14:05:47.248Z,16.10
2018-10-18T14:08:22.374Z,14.10
2018-10-18T14:11:04.179Z,12.63
2018-10-18T14:13:43.522Z,14.57
2018-10-18T14:16:18.461Z,13.03
2018-10-18T14:18:56.625Z,13.13
2018-10-18T14:21:37.371Z,14.53
2018-10-18T14:24:12.862Z,20.57
2018-10-18T14:26:51.575Z,17.73
2018-10-18T14:29:33.535Z,16.73
2018-10-18T14:32:12.719Z,22.47
2018-10-18T14:34:50.396Z,16.40
2018-10-18T14:37:31.048Z,20.67
2018-10-18T14:40:12.821Z,20.07
2018-10-18T14:42:49.877Z,20.67
2018-10-18T14:45:25.256Z,19.93
2018-10-18T14:48:12.311Z,21.33
2018-10-18T14:50:49.796Z,18.43
2018-10-18T14:56:36.087Z,19.30
2018-10-18T15:02:36.018Z,20.23
2018-10-18T15:05:14.640Z,17.43
2018-10-18T15:07:50.713Z,23.27
2018-10-18T15:14:12.532Z,21.07
2018-10-18T15:20:41.874Z,19.97
2018-10-18T15:23:33.255Z,19.03
2018-10-18T15:26:24.604Z,21.97
2018-10-18T15:29:06.778Z,18.60
2018-10-18T15:31:51.120Z,17.90
2018-10-18T15:34:28.411Z,18.27
2018-10-18T15:37:16.975Z,18.70
2018-10-18T15:39:51.952Z,21.97
2018-10-18T15:42:28.244Z,21.17
2018-10-18T15:45:05.219Z,16.87
2018-10-18T15:47:46.087Z,18.97
2018-10-18T15:50:21.973Z,15.00
2018-10-18T15:52:58.217Z,16.53
2018-10-18T15:55:36.867Z,18.67
2018-10-18T15:58:12.951Z,14.53
2018-10-18T16:00:47.735Z,16.67
2018-10-18T16:03:22.672Z,21.20
2018-10-18T16:06:00.142Z,21.37
2018-10-18T16:08:36.872Z,14.73
2018-10-18T16:11:14.992Z,18.10
2018-10-18T16:13:51.262Z,17.57
2018-10-18T16:16:27.437Z,15.87
2018-10-18T16:19:07.645Z,20.43
2018-10-18T16:21:41.954Z,18.83
2018-10-18T16:24:17.837Z,17.87
2018-10-18T16:26:59.321Z,19.07
2018-10-18T16:32:25.602Z,14.80
2018-10-18T16:35:02.934Z,16.03
2018-10-18T16:37:43.241Z,14.13
2018-10-18T16:40:29.120Z,16.37
2018-10-18T16:43:10.704Z,17.87
2018-10-18T16:45:45.605Z,13.60
2018-10-18T16:48:21.345Z,13.33
2018-10-18T16:51:08.549Z,15.70
2018-10-18T16:53:45.858Z,16.73
2018-10-18T16:56:28.062Z,14.13
2018-10-18T16:59:17.064Z,16.47
2018-10-18T17:01:52.013Z,14.47
2018-10-18T17:04:27.971Z,16.00
2018-10-18T17:07:03.457Z,16.37
2018-10-18T17:09:38.767Z,14.97
2018-10-18T17:12:18.647Z,15.07
2018-10-18T17:14:54.363Z,19.30
2018-10-18T17:17:30.035Z,14.17
2018-10-18T17:20:11.000Z,15.97
2018-10-18T17:22:46.910Z,14.90
2018-10-18T17:25:22.348Z,14.00
2018-10-18T17:28:00.200Z,16.30
2018-10-18T17:30:43.487Z,14.93
2018-10-18T17:33:22.305Z,17.53
2018-10-18T17:35:59.720Z,17.63
2018-10-18T17:38:36.955Z,16.63
2018-10-18T17:41:12.461Z,13.13
2018-10-18T17:43:47.994Z,17.20
2018-10-18T17:46:29.028Z,17.00
2018-10-18T17:49:10.814Z,13.73
2018-10-18T17:51:45.531Z,14.97
2018-10-18T17:54:25.553Z,19.53
2018-10-18T17:57:06.541Z,15.07
2018-10-18T17:59:44.311Z,17.33
2018-10-18T18:02:20.569Z,16.27
2018-10-18T18:04:56.065Z,21.87
2018-10-18T18:07:35.652Z,17.37
2018-10-18T18:10:19.287Z,23.30
2018-10-18T18:13:12.315Z,19.07
2018-10-18T18:15:51.181Z,21.77
2018-10-18T18:18:31.420Z,24.63
2018-10-18T18:21:11.034Z,24.83
2018-10-18T18:23:45.908Z,23.07
2018-10-18T18:26:32.363Z,25.60
2018-10-18T18:28:56.906Z,23.50
2018-10-18T18:31:32.652Z,22.40
2018-10-18T18:34:07.863Z,22.60
2018-10-18T18:36:45.589Z,24.87
2018-10-18T18:39:21.317Z,21.00
2018-10-18T18:42:07.252Z,23.83
2018-10-18T18:44:49.996Z,25.37
2018-10-18T18:47:42.949Z,27.50
2018-10-18T18:50:24.986Z,24.33
2018-10-18T18:53:04.644Z,28.03
2018-10-18T18:58:22.733Z,26.60
2018-10-18T19:00:58.370Z,26.73
2018-10-18T19:03:35.987Z,27.13
2018-10-18T19:06:12.866Z,29.33
2018-10-18T19:08:49.825Z,26.83
2018-10-18T19:11:30.452Z,29.30
2018-10-18T19:14:12.126Z,30.23
2018-10-18T19:16:48.105Z,32.83
2018-10-18T19:19:28.825Z,27.10
2018-10-18T19:22:07.659Z,26.03
2018-10-18T19:24:43.978Z,26.53
2018-10-18T19:41:14.047Z,27.23
2018-10-18T19:43:50.209Z,27.57
2018-10-18T19:46:26.667Z,27.97
2018-10-18T19:49:01.691Z,31.13
2018-10-18T19:51:49.402Z,29.93
2018-10-18T19:54:24.882Z,31.30
2018-10-18T19:59:41.476Z,29.97
2018-10-18T20:02:17.628Z,32.43
2018-10-18T20:04:53.279Z,30.40
2018-10-18T20:07:29.263Z,27.27
2018-10-18T20:10:05.497Z,28.13
2018-10-18T20:12:41.075Z,26.53
2018-10-18T20:15:16.313Z,27.87
2018-10-18T20:17:51.184Z,27.87
2018-10-18T20:20:26.638Z,32.40
2018-10-18T20:23:02.003Z,31.97
2018-10-18T20:25:39.834Z,26.13
2018-10-18T20:28:15.424Z,27.63
2018-10-18T20:30:50.409Z,33.40
2018-10-18T20:33:26.194Z,27.97
2018-10-18T20:36:04.419Z,28.70
2018-10-18T20:38:40.850Z,29.53
2018-10-18T20:43:58.259Z,31.97
2018-10-18T20:46:41.084Z,30.87
2018-10-18T20:49:17.163Z,29.60
2018-10-18T20:51:54.222Z,29.20
2018-10-18T20:54:30.205Z,30.30
2018-10-18T20:57:07.957Z,30.27
2018-10-18T20:59:44.887Z,29.10
2018-10-18T21:02:19.819Z,28.47
2018-10-18T21:04:55.087Z,32.50
2018-10-18T21:07:36.626Z,35.33
2018-10-18T21:10:14.167Z,31.93
2018-10-18T21:12:55.980Z,30.50
2018-10-18T21:15:37.000Z,33.37
2018-10-18T21:18:12.793Z,33.83
2018-10-18T21:20:50.019Z,36.83
2018-10-18T21:23:30.344Z,33.23
2018-10-18T21:26:06.824Z,33.37
2018-10-18T21:28:45.046Z,33.33
2018-10-18T21:31:23.020Z,35.80
2018-10-18T21:33:59.113Z,33.73
2018-10-18T21:36:36.962Z,31.33
2018-10-18T21:39:13.665Z,31.23
2018-10-18T21:41:55.494Z,31.37
2018-10-18T21:44:33.452Z,33.43
2018-10-18T21:47:09.107Z,39.53
2018-10-18T21:49:45.029Z,33.53
2018-10-18T21:52:22.096Z,33.93
2018-10-18T21:54:58.903Z,32.30
2018-10-18T21:57:36.668Z,33.73
2018-10-18T22:00:15.230Z,34.33
2018-10-18T22:02:52.811Z,31.47
2018-10-18T22:05:30.558Z,32.77
2018-10-18T22:08:11.898Z,36.57
2018-10-18T22:10:51.649Z,34.50
2018-10-18T22:13:27.355Z,34.63
2018-10-18T22:16:05.144Z,42.57
2018-10-18T22:18:43.204Z,44.27
2018-10-18T22:21:20.017Z,36.87
2018-10-18T22:23:55.604Z,39.40
2018-10-18T22:26:32.843Z,40.90
2018-10-18T22:29:10.511Z,41.47
2018-10-18T22:31:56.951Z,40.43
2018-10-18T22:34:37.343Z,37.17
2018-10-18T22:37:13.379Z,38.17
2018-10-18T22:39:51.471Z,40.87
2018-10-18T22:42:40.039Z,40.40
2018-10-18T22:45:15.805Z,41.50
2018-10-18T22:47:51.757Z,37.63
2018-10-18T22:50:27.557Z,41.30
2018-10-18T22:53:03.228Z,42.30
2018-10-18T22:55:38.980Z,43.20
2018-10-18T22:58:14.835Z,44.07
2018-10-18T23:00:51.985Z,44.57
2018-10-18T23:03:29.193Z,39.03
2018-10-18T23:06:04.653Z,38.17
2018-10-18T23:08:40.872Z,38.53
2018-10-18T23:11:17.644Z,41.60
2018-10-18T23:14:00.038Z,45.33
2018-10-18T23:16:39.833Z,44.73
2018-10-18T23:19:16.721Z,43.07
2018-10-18T23:21:53.506Z,43.47
2018-10-18T23:24:30.689Z,43.23
2018-10-18T23:27:11.486Z,41.00
2018-10-18T23:29:48.058Z,43.97
2018-10-18T23:32:24.430Z,44.17
2018-10-18T23:35:01.293Z,46.07
2018-10-18T23:37:38.883Z,51.53
2018-10-18T23:40:15.322Z,53.47
2018-10-18T23:42:51.434Z,50.37
2018-10-18T23:45:28.397Z,47.40
2018-10-18T23:48:13.316Z,50.37
2018-10-18T23:50:51.804Z,46.77
2018-10-18T23:53:29.113Z,49.20
2018-10-18T23:56:09.186Z,47.47
2018-10-18T23:58:45.516Z,48.23
